Pigeon Forge, TN

10:15 AM EDT on May 28, 2017 (GMT -0400)
KOA Campground Pigeon Forge | | Change Station

Elev 1037 ft 35.79 °N, 83.55 °W | Updated 32 seconds ago

Partly Cloudy
Partly Cloudy
68.9 °F
Feels Like 68.9 °F
N
0.0
Wind Variable Wind from NNW
Gusts 0.0 mph

Today
High -- | Low -- °F
--% Chance of Precip.
Yesterday
High -- | Low -- °F
Precip. -- in
Pressure 29.92 in
Visibility 10.0 miles
Clouds Mostly Cloudy 1100 ft
Mostly Cloudy 2900 ft
Mostly Cloudy 12000 ft
Dew Point 64 °F
Humidity 83%
Rainfall 0.13 in
Snow Depth Not available.
6:20 AM 8:42 PM
Waxing Crescent, 11% visible
SPECI KTYS 281409Z 31006KT 10SM BKN011 BKN029 BKN120 19/17 A2992 RMK AO2 T01940167 $
Pressure 29.92 in
Visibility 10.0 miles
Clouds Mostly Cloudy 1100 ft
Mostly Cloudy 2900 ft
Mostly Cloudy 12000 ft
Dew Point 64 °F
Humidity 83%
Rainfall 0.13 in
Snow Depth Not available.
6:20 AM 8:42 PM
Waxing Crescent, 11% visible
SPECI KTYS 281409Z 31006KT 10SM BKN011 BKN029 BKN120 19/17 A2992 RMK AO2 T01940167 $

Get Severe Weather Alerts

Thanks for signing up!

Be on the lookout for a verification email in your inbox.

You'll start receiving the daily forecast at 6 AM.

×

10-Day Weather Forecast

Almanac

Astronomy

May. 28, 2017 Rise Set
Actual Time
Civil Twilight
Nautical Twilight
Astronomical Twilight
Moon
Length of Visible Light
Length of Day
Tomorrow will be .
, % of the Moon is Illuminated

Today's Extremes

State Highs State Lows

Community

WunderPhotos

Category 6

Welcome to Category 6. This is the collective home for Weather Underground's featured writeups by Dr. Jeff Masters (right), Bob Henson (left), Chris Burt, and other regular contributors.

Nearby

Air Quality

  Air Quality AQ Index Pollutant
Not available.

Snow Depth

Station Depth Elevation

Earthquake Activity

City Distance Mag. Time & Date
Minimum magnitude displayed is 2.5.

Coastal Water Temperatures

Place Temperature

Stations

Nearby Weather Stations

Station Location Temp. Windchill Dew Point Humidity Wind Precip. Elev Updated Type
                   

Watches & Warnings

There are currently no watches in effect.